Time;durP1;ratioP1;P1;durP2;ratioP2;P2;SDS_P1;SDS_P2;PMS_P1;PMS_P2;Temp;Humidity;BMP_temperature;BMP_pressure;BME280_temperature;BME280_humidity;BME280_pressure;Samples;Min_cycle;Max_cycle;Signal;HPM_P1;HPM_P2
2023/04/09 00:01:32;;;;;;;13.07;4.93;;;;;;;8.00;65.17;101045.19;5065372;28;20044;-50
2023/04/09 00:03:59;;;;;;;15.50;5.28;;;;;;;8.01;65.60;101049.53;5058341;28;20061;-53
2023/04/09 00:06:26;;;;;;;14.32;5.88;;;;;;;8.04;65.08;101044.44;5061127;28;20048;-49
2023/04/09 00:08:53;;;;;;;12.98;4.55;;;;;;;8.06;65.11;101047.91;5066477;28;20501;-50
2023/04/09 00:11:20;;;;;;;13.45;5.50;;;;;;;8.08;65.37;101035.94;5065311;28;20048;-50
2023/04/09 00:13:47;;;;;;;12.82;5.10;;;;;;;8.08;64.39;101038.50;5074197;28;20407;-50
2023/04/09 00:16:13;;;;;;;12.20;4.70;;;;;;;8.09;64.95;101045.41;5065591;28;20620;-52
2023/04/09 00:18:40;;;;;;;12.45;5.53;;;;;;;8.09;64.22;101037.66;5072523;28;20133;-52
2023/04/09 00:21:07;;;;;;;13.18;5.60;;;;;;;8.10;64.56;101034.25;5065318;28;20139;-49
2023/04/09 00:23:34;;;;;;;14.90;6.07;;;;;;;8.09;65.21;101027.34;5064142;28;20060;-53
2023/04/09 00:26:01;;;;;;;17.70;6.60;;;;;;;8.07;65.15;101029.03;5061061;28;20080;-50
2023/04/09 00:28:28;;;;;;;16.95;6.25;;;;;;;8.02;66.03;101026.34;5065080;28;20048;-51
2023/04/09 00:30:54;;;;;;;13.50;5.35;;;;;;;8.00;66.01;101024.56;5074806;28;20745;-51
2023/04/09 00:33:21;;;;;;;12.55;5.15;;;;;;;7.98;65.99;101025.38;5065397;28;20048;-52
2023/04/09 00:35:47;;;;;;;15.55;5.68;;;;;;;7.96;66.22;101021.91;5061403;28;20045;-55
2023/04/09 00:38:14;;;;;;;14.13;5.78;;;;;;;7.97;66.88;101017.59;5062527;28;20041;-53
2023/04/09 00:40:41;;;;;;;14.40;5.82;;;;;;;7.96;66.40;101019.31;5066153;28;20098;-52
2023/04/09 00:43:08;;;;;;;17.92;7.38;;;;;;;7.97;67.02;101008.16;5065751;28;20076;-52
2023/04/09 00:45:35;;;;;;;16.40;6.40;;;;;;;7.98;66.27;101009.91;5065329;28;20082;-53
2023/04/09 00:48:02;;;;;;;11.82;5.18;;;;;;;7.99;66.02;101005.63;5065718;28;20049;-51
2023/04/09 00:50:28;;;;;;;20.98;6.75;;;;;;;8.01;66.87;101010.81;5067422;28;20106;-51
2023/04/09 00:52:55;;;;;;;17.17;6.32;;;;;;;8.02;65.78;100999.66;5064347;28;20044;-53
2023/04/09 00:55:22;;;;;;;16.35;6.50;;;;;;;8.01;65.62;100998.81;5065252;28;20040;-54
2023/04/09 00:57:49;;;;;;;16.15;5.38;;;;;;;8.01;66.52;100993.66;5065734;28;20049;-54
2023/04/09 01:00:15;;;;;;;15.52;6.30;;;;;;;8.01;65.93;100987.59;5065783;28;20098;-50
2023/04/09 01:02:43;;;;;;;16.77;6.28;;;;;;;8.00;66.38;100985.88;5068343;28;20052;-52
2023/04/09 01:05:11;;;;;;;18.42;5.82;;;;;;;8.00;66.59;100985.88;5059910;28;20128;-50
2023/04/09 01:13:27;;;;;;;18.40;7.40;;;;;;;8.08;67.06;100968.84;5050218;27;20404;-51
2023/04/09 01:15:56;;;;;;;17.23;6.25;;;;;;;8.04;66.92;100967.03;5012510;28;20100;-51
2023/04/09 01:21:05;;;;;;;19.42;6.18;;;;;;;7.93;67.77;100957.34;5057207;28;20406;-54
2023/04/09 01:26:58;;;;;;;16.48;6.70;;;;;;;7.83;66.94;100968.25;5081710;27;20386;-52
2023/04/09 01:29:29;;;;;;;15.07;5.72;;;;;;;7.79;66.84;100962.19;5026654;28;20070;-53
2023/04/09 01:31:57;;;;;;;17.35;6.40;;;;;;;7.73;68.26;100967.19;5023701;28;20053;-52
2023/04/09 01:34:25;;;;;;;15.50;5.95;;;;;;;7.69;67.42;100966.25;5021332;28;20077;-52
2023/04/09 01:36:55;;;;;;;15.50;6.00;;;;;;;7.66;67.83;100954.97;5029265;28;20624;-49
2023/04/09 01:39:22;;;;;;;15.70;6.40;;;;;;;7.60;68.88;100960.84;5030210;28;20761;-52
2023/04/09 01:41:50;;;;;;;20.80;8.20;;;;;;;7.60;67.63;100955.69;5008254;28;20042;-52
2023/04/09 01:44:17;;;;;;;17.02;6.95;;;;;;;7.54;68.18;100958.13;5055550;28;20049;-49
2023/04/09 01:46:47;;;;;;;19.20;6.68;;;;;;;7.44;68.72;100960.47;5021489;28;20104;-55
2023/04/09 01:49:14;;;;;;;17.60;6.85;;;;;;;7.37;69.06;100963.75;5014443;28;20172;-51
2023/04/09 01:51:42;;;;;;;18.63;7.35;;;;;;;7.31;68.87;100967.03;5030558;28;20049;-53
2023/04/09 01:54:08;;;;;;;16.25;6.82;;;;;;;7.26;68.98;100960.03;5035640;28;20140;-54
2023/04/09 01:56:43;;;;;;;22.65;7.40;;;;;;;7.23;69.20;100965.09;5027717;28;20042;-48
2023/04/09 01:59:10;;;;;;;18.85;7.85;;;;;;;7.13;70.12;100958.84;5032328;28;20057;-50
2023/04/09 02:01:44;;;;;;;20.08;7.30;;;;;;;7.11;71.11;100963.94;5038350;28;20135;-52
2023/04/09 02:04:34;;;;;;;19.02;6.43;;;;;;;7.02;70.61;100966.25;5035321;28;20519;-54
2023/04/09 02:07:04;;;;;;;;;;;;;;;6.96;72.44;100960.97;5030957;28;20488;-55
2023/04/09 02:09:35;;;;;;;17.60;6.90;;;;;;;7.00;72.28;100962.78;5041892;28;20015;-52
2023/04/09 02:12:04;;;;;;;25.23;8.90;;;;;;;7.01;72.42;100959.38;5039404;28;20083;-54
2023/04/09 02:14:32;;;;;;;22.08;7.40;;;;;;;7.04;71.95;100954.31;5029452;28;20049;-53
2023/04/09 02:17:00;;;;;;;25.00;8.80;;;;;;;7.03;71.99;100958.56;5038502;28;20133;-56
2023/04/09 02:19:44;;;;;;;20.98;9.05;;;;;;;7.03;72.48;100960.31;5032255;28;20056;-51
2023/04/09 02:22:11;;;;;;;20.27;7.35;;;;;;;7.07;70.91;100959.56;5035624;28;20505;-52
2023/04/09 02:24:39;;;;;;;20.67;7.63;;;;;;;7.06;72.91;100962.97;5031926;28;20103;-53
2023/04/09 02:27:06;;;;;;;20.42;7.25;;;;;;;6.99;72.72;100955.91;5037196;28;20120;-50
2023/04/09 02:29:33;;;;;;;23.23;8.75;;;;;;;7.03;72.08;100962.88;5035453;28;20049;-50
2023/04/09 02:32:00;;;;;;;23.13;8.57;;;;;;;7.02;72.96;100956.84;5040906;28;20084;-47
2023/04/09 02:34:26;;;;;;;24.52;8.48;;;;;;;7.04;71.78;100959.47;5033749;28;20049;-49
2023/04/09 02:36:53;;;;;;;22.20;7.13;;;;;;;7.04;72.04;100956.88;5020086;28;20054;-54
2023/04/09 02:39:20;;;;;;;24.95;9.27;;;;;;;6.96;74.40;100961.84;5025504;28;20390;-51
2023/04/09 02:41:46;;;;;;;24.95;9.75;;;;;;;6.92;74.17;100945.41;5021980;28;20136;-52
2023/04/09 02:44:13;;;;;;;28.98;8.95;;;;;;;6.93;73.29;100951.47;5029321;28;20045;-51
2023/04/09 02:46:40;;;;;;;27.80;9.77;;;;;;;6.90;74.41;100949.69;5023925;28;20081;-55
2023/04/09 02:49:07;;;;;;;19.10;7.88;;;;;;;6.82;76.29;100946.88;5015798;28;20061;-51
2023/04/09 02:51:34;;;;;;;23.90;8.45;;;;;;;6.81;76.50;100946.84;5020680;28;20103;-50
2023/04/09 02:54:01;;;;;;;25.92;10.70;;;;;;;6.77;76.50;100950.16;5025916;28;20396;-52
2023/04/09 02:56:28;;;;;;;20.17;8.35;;;;;;;6.69;76.37;100943.09;5023393;28;20045;-49
2023/04/09 02:58:55;;;;;;;28.88;9.93;;;;;;;6.73;76.40;100945.75;5027896;28;20045;-49
2023/04/09 03:01:21;;;;;;;19.05;7.35;;;;;;;6.64;77.39;100948.94;5021157;28;20587;-50
2023/04/09 03:03:48;;;;;;;26.48;7.63;;;;;;;6.62;76.57;100935.16;5022982;28;20052;-52
2023/04/09 03:06:17;;;;;;;27.33;8.52;;;;;;;6.64;77.24;100939.53;5020898;28;20037;-51
2023/04/09 03:08:44;;;;;;;26.10;9.13;;;;;;;6.63;76.77;100940.38;5027163;28;20049;-49
2023/04/09 03:11:11;;;;;;;22.17;7.78;;;;;;;6.63;76.76;100935.22;5022406;28;20152;-53
2023/04/09 03:13:37;;;;;;;19.73;8.85;;;;;;;6.65;76.56;100940.38;5020896;28;20084;-50
2023/04/09 03:16:04;;;;;;;22.88;7.07;;;;;;;6.55;77.47;100937.56;5017867;28;20069;-54
2023/04/09 03:18:31;;;;;;;16.92;7.15;;;;;;;6.53;78.08;100936.66;5011931;28;20050;-48
2023/04/09 03:20:57;;;;;;;25.90;9.10;;;;;;;6.60;76.40;100935.13;5020798;28;20057;-53
2023/04/09 03:23:24;;;;;;;23.52;8.02;;;;;;;6.59;77.21;100924.78;5026005;28;20041;-51
2023/04/09 03:26:00;;;;;;;22.08;8.00;;;;;;;6.52;77.50;100936.63;5019484;28;20041;-47
2023/04/09 03:28:27;;;;;;;16.50;6.07;;;;;;;6.48;77.93;100932.22;5018138;28;20107;-53
2023/04/09 03:30:54;;;;;;;23.90;8.75;;;;;;;6.55;77.06;100939.25;5024913;28;20076;-54
2023/04/09 03:33:20;;;;;;;29.27;9.68;;;;;;;6.58;77.50;100944.50;5016218;28;20042;-50
2023/04/09 03:35:47;;;;;;;26.13;7.88;;;;;;;6.65;76.90;100945.53;5019641;28;20077;-54
2023/04/09 03:38:13;;;;;;;31.85;9.80;;;;;;;6.71;76.60;100939.69;5021628;28;20049;-53
2023/04/09 03:40:41;;;;;;;23.80;8.65;;;;;;;6.70;76.44;100941.41;5026441;28;20136;-51
2023/04/09 03:43:08;;;;;;;26.55;8.77;;;;;;;6.74;76.40;100944.91;5021099;28;20095;-49
2023/04/09 03:45:34;;;;;;;28.00;8.75;;;;;;;6.76;75.73;100938.13;5017688;28;20054;-52
2023/04/09 03:48:01;;;;;;;26.17;7.78;;;;;;;6.76;77.29;100943.28;5025156;28;20072;-53
2023/04/09 03:50:27;;;;;;;24.98;8.23;;;;;;;6.80;76.43;100942.53;5016429;28;20053;-53
2023/04/09 03:52:54;;;;;;;26.85;8.52;;;;;;;6.84;76.06;100941.78;5020872;28;20123;-52
2023/04/09 03:55:21;;;;;;;26.13;9.45;;;;;;;6.86;75.67;100941.81;5016287;28;20038;-51
2023/04/09 03:57:47;;;;;;;30.88;9.95;;;;;;;6.86;75.58;100936.66;5022582;28;20053;-49
2023/04/09 04:00:14;;;;;;;27.27;9.93;;;;;;;6.89;75.27;100940.19;5023519;28;20054;-51
2023/04/09 04:02:41;;;;;;;33.83;11.15;;;;;;;6.90;74.85;100939.38;5019778;28;20050;-50
2023/04/09 04:05:08;;;;;;;27.77;9.70;;;;;;;6.92;74.93;100939.38;5024405;28;20099;-47
2023/04/09 04:07:35;;;;;;;26.13;7.90;;;;;;;6.90;75.44;100936.81;5021617;28;20126;-53
2023/04/09 04:10:05;;;;;;;26.17;9.93;;;;;;;6.93;75.28;100931.69;5009159;28;20046;-52
2023/04/09 04:12:32;;;;;;;33.25;9.77;;;;;;;6.96;74.66;100925.78;5023420;28;20085;-48
2023/04/09 04:15:00;;;;;;;31.92;9.65;;;;;;;6.96;74.34;100930.94;5020638;28;20111;-50
2023/04/09 04:17:26;;;;;;;29.38;9.35;;;;;;;6.96;75.14;100930.94;5018005;28;20077;-50
2023/04/09 04:19:53;;;;;;;34.72;9.95;;;;;;;6.99;75.10;100922.41;5022995;28;20497;-54
2023/04/09 04:22:20;;;;;;;30.02;9.93;;;;;;;7.00;75.60;100927.63;5023023;28;20055;-50
2023/04/09 04:24:46;;;;;;;29.80;10.75;;;;;;;7.03;74.98;100921.66;5024769;28;20050;-53
2023/04/09 04:27:13;;;;;;;31.20;11.55;;;;;;;7.02;75.49;100920.78;5025311;28;20391;-50
2023/04/09 04:29:39;;;;;;;20.92;8.30;;;;;;;7.03;75.74;100921.66;5019385;28;20052;-49
2023/04/09 04:32:06;;;;;;;38.10;11.23;;;;;;;7.02;75.81;100909.59;5018662;28;20042;-49
2023/04/09 04:34:32;;;;;;;25.90;9.13;;;;;;;7.02;74.59;100912.16;5016195;28;20175;-50
2023/04/09 04:36:59;;;;;;;28.75;9.57;;;;;;;6.96;75.67;100909.44;5022345;28;20570;-51
2023/04/09 04:39:26;;;;;;;28.02;9.05;;;;;;;6.94;75.84;100907.72;5025399;28;20053;-53
2023/04/09 04:41:52;;;;;;;33.25;10.10;;;;;;;7.00;76.04;100906.13;5021128;28;20088;-50
2023/04/09 04:44:19;;;;;;;30.95;9.32;;;;;;;6.98;74.85;100893.19;5019539;28;20084;-54
2023/04/09 04:46:45;;;;;;;31.58;10.18;;;;;;;6.99;75.04;100888.94;5016616;28;20054;-52
2023/04/09 04:49:12;;;;;;;26.85;8.95;;;;;;;6.99;75.78;100897.50;5017408;28;20099;-52
2023/04/09 04:51:38;;;;;;;27.90;8.60;;;;;;;7.02;75.12;100887.28;5022098;28;20046;-51
2023/04/09 04:54:05;;;;;;;28.55;10.32;;;;;;;7.01;76.38;100880.41;5018685;28;20634;-51
2023/04/09 04:56:31;;;;;;;27.90;9.90;;;;;;;6.96;76.55;100882.00;5025915;28;20608;-50
2023/04/09 04:58:59;;;;;;;29.95;10.35;;;;;;;7.00;75.33;100881.25;5025628;28;20585;-49
2023/04/09 05:01:26;;;;;;;24.25;8.43;;;;;;;6.96;75.38;100883.69;5024136;28;20055;-55
2023/04/09 05:03:52;;;;;;;28.20;8.50;;;;;;;6.93;76.60;100880.19;5017942;28;20045;-54
2023/04/09 05:06:19;;;;;;;25.38;9.30;;;;;;;6.89;76.75;100873.22;5020161;28;20167;-56
2023/04/09 05:08:46;;;;;;;30.35;10.10;;;;;;;6.91;75.84;100871.56;5018756;28;20553;-54
2023/04/09 05:11:14;;;;;;;20.45;8.20;;;;;;;6.91;75.64;100870.69;5017884;28;20077;-54
2023/04/09 05:13:40;;;;;;;34.05;10.73;;;;;;;6.92;76.40;100872.44;5019864;28;20056;-51
2023/04/09 05:16:07;;;;;;;26.95;8.80;;;;;;;6.89;76.51;100872.38;5017399;28;20065;-49
2023/04/09 05:18:33;;;;;;;31.38;9.90;;;;;;;6.84;76.09;100861.94;5023013;28;20460;-49
2023/04/09 05:21:00;;;;;;;25.58;9.30;;;;;;;6.84;76.69;100863.63;5016712;28;20077;-54
2023/04/09 05:23:27;;;;;;;26.38;8.85;;;;;;;6.80;75.27;100855.81;5022473;28;20050;-54
2023/04/09 05:25:53;;;;;;;22.73;7.80;;;;;;;6.76;75.63;100853.16;5013186;28;20045;-52
2023/04/09 05:28:20;;;;;;;26.23;8.50;;;;;;;6.73;76.13;100850.50;5018013;28;20070;-49
2023/04/09 05:30:47;;;;;;;23.25;7.20;;;;;;;6.64;76.36;100857.16;5011084;28;20115;-52
2023/04/09 05:33:13;;;;;;;26.08;8.15;;;;;;;6.61;74.95;100857.06;5015327;28;20053;-56
2023/04/09 05:35:40;;;;;;;22.75;7.05;;;;;;;6.54;75.38;100855.16;5016348;28;20103;-54
2023/04/09 05:38:07;;;;;;;20.52;7.35;;;;;;;6.40;75.79;100855.66;5022413;28;20049;-50
2023/04/09 05:40:34;;;;;;;21.88;7.95;;;;;;;6.37;76.39;100863.28;5025243;28;20160;-51
2023/04/09 05:43:00;;;;;;;25.40;7.72;;;;;;;6.40;76.08;100863.38;5016223;28;20073;-49
2023/04/09 05:45:27;;;;;;;22.38;7.78;;;;;;;6.40;74.64;100862.50;5023608;28;20052;-50
2023/04/09 05:47:54;;;;;;;27.63;8.25;;;;;;;6.45;75.79;100875.50;5021298;28;20053;-50
2023/04/09 05:50:20;;;;;;;23.42;7.40;;;;;;;6.46;74.50;100872.97;5019181;28;20671;-47
2023/04/09 05:52:47;;;;;;;25.90;8.10;;;;;;;6.51;74.52;100871.38;5015632;28;20468;-53
2023/04/09 05:55:14;;;;;;;21.83;7.05;;;;;;;6.55;75.46;100877.47;5012614;28;20108;-51
2023/04/09 05:57:41;;;;;;;26.50;8.23;;;;;;;6.57;74.66;100870.69;5024543;28;20089;-55
2023/04/09 06:00:08;;;;;;;25.55;7.38;;;;;;;6.57;75.17;100870.69;5016894;28;20065;-50
2023/04/09 06:02:35;;;;;;;21.88;7.75;;;;;;;6.61;75.69;100857.06;5009862;28;20054;-52
2023/04/09 06:05:02;;;;;;;26.55;7.95;;;;;;;6.64;74.48;100859.72;5012416;28;20045;-52
2023/04/09 06:07:28;;;;;;;22.27;8.23;;;;;;;6.65;75.12;100853.72;5012500;28;20108;-48
2023/04/09 06:09:55;;;;;;;26.27;8.43;;;;;;;6.69;75.70;100859.84;5015434;28;20128;-53
2023/04/09 06:12:22;;;;;;;26.00;8.23;;;;;;;6.70;75.58;100861.59;5023582;28;20053;-52
2023/04/09 06:14:48;;;;;;;27.98;9.00;;;;;;;6.68;75.00;100852.94;5019748;28;20054;-53
2023/04/09 06:17:15;;;;;;;24.50;8.07;;;;;;;6.68;75.85;100843.53;5019256;28;20124;-54
2023/04/09 06:19:42;;;;;;;24.77;8.65;;;;;;;6.67;76.48;100839.22;5025938;28;20081;-55
2023/04/09 06:22:09;;;;;;;21.98;8.15;;;;;;;6.72;76.30;100839.31;5024646;28;20509;-51
2023/04/09 06:24:36;;;;;;;25.23;8.27;;;;;;;6.70;75.79;100838.41;5019377;28;20049;-53
2023/04/09 06:27:03;;;;;;;28.77;7.90;;;;;;;6.75;77.34;100833.41;5018367;28;20115;-53
2023/04/09 06:29:30;;;;;;;22.52;7.85;;;;;;;6.72;76.67;100829.00;5018381;28;21501;-51
2023/04/09 06:31:56;;;;;;;24.17;7.63;;;;;;;6.70;78.25;100830.69;5026875;28;20081;-51
2023/04/09 06:34:23;;;;;;;24.02;7.97;;;;;;;6.72;77.19;100830.72;5023236;28;20053;-49
2023/04/09 06:36:50;;;;;;;29.48;10.40;;;;;;;6.82;76.69;100832.69;5019204;28;20410;-48
2023/04/09 06:39:16;;;;;;;29.33;8.73;;;;;;;6.86;76.21;100828.50;5016564;28;20187;-53
2023/04/09 06:41:43;;;;;;;29.65;8.70;;;;;;;6.88;77.61;100829.41;5025613;28;20046;-53
2023/04/09 06:44:09;;;;;;;31.17;9.23;;;;;;;6.86;77.42;100834.50;5023944;28;20077;-53
2023/04/09 06:46:36;;;;;;;34.13;10.75;;;;;;;6.90;77.90;100832.91;5025412;28;20046;-50
2023/04/09 06:49:02;;;;;;;31.88;9.45;;;;;;;6.97;75.91;100839.06;5026502;28;20053;-52
2023/04/09 06:51:29;;;;;;;28.95;9.50;;;;;;;7.02;77.28;100837.47;5016685;28;20048;-54
2023/04/09 06:53:55;;;;;;;26.63;8.85;;;;;;;7.00;76.82;100834.88;5026049;28;20132;-55
2023/04/09 06:56:22;;;;;;;34.70;10.10;;;;;;;7.09;77.30;100834.22;5026936;28;20057;-51
2023/04/09 06:58:49;;;;;;;35.47;9.73;;;;;;;7.14;76.43;100822.34;5023575;28;20054;-53
2023/04/09 07:01:16;;;;;;;25.30;8.93;;;;;;;7.14;76.41;100816.28;5024333;28;20061;-54
2023/04/09 07:03:43;;;;;;;34.20;9.93;;;;;;;7.14;77.18;100813.72;5015591;28;20078;-50
2023/04/09 07:06:10;;;;;;;24.05;8.80;;;;;;;7.09;78.00;100803.28;5025387;28;20046;-55
2023/04/09 07:08:36;;;;;;;18.58;6.97;;;;;;;7.08;77.76;100806.72;5014351;28;20081;-56
2023/04/09 07:11:03;;;;;;;29.58;9.73;;;;;;;7.17;77.69;100814.66;5026423;28;20135;-54
2023/04/09 07:13:30;;;;;;;27.30;10.77;;;;;;;7.15;79.06;100818.91;5020311;28;20431;-47
2023/04/09 07:15:56;;;;;;;29.17;8.55;;;;;;;7.19;78.29;100825.88;5018777;28;20058;-52
2023/04/09 07:18:23;;;;;;;30.42;8.93;;;;;;;7.19;78.98;100822.41;5015202;28;20556;-50
2023/04/09 07:20:51;;;;;;;21.13;7.97;;;;;;;7.15;78.58;100813.75;5020817;28;20045;-53
2023/04/09 07:23:18;;;;;;;25.70;9.45;;;;;;;7.22;78.84;100811.34;5021082;28;20046;-53
2023/04/09 07:25:44;;;;;;;36.33;11.00;;;;;;;7.32;77.95;100815.84;5020683;28;20136;-49
2023/04/09 07:28:11;;;;;;;30.02;10.23;;;;;;;7.42;77.52;100833.28;5013909;28;20137;-53
2023/04/09 07:30:38;;;;;;;23.00;9.10;;;;;;;7.42;78.74;100828.13;5020615;28;20394;-52
2023/04/09 07:33:05;;;;;;;24.35;8.63;;;;;;;7.46;77.82;100824.78;5021735;28;20049;-53
2023/04/09 07:35:33;;;;;;;20.83;5.65;;;;;;;7.56;78.13;100832.72;5018743;28;20508;-55
2023/04/09 07:38:00;;;;;;;21.85;7.53;;;;;;;7.57;78.21;100831.88;5023833;28;20045;-51
2023/04/09 07:40:26;;;;;;;19.63;7.50;;;;;;;7.57;77.78;100831.88;5017850;28;20096;-54
2023/04/09 07:42:54;;;;;;;19.08;7.57;;;;;;;7.60;76.92;100837.09;5021265;28;20076;-52
2023/04/09 07:45:21;;;;;;;23.90;8.70;;;;;;;7.60;76.88;100837.09;5021034;28;20545;-53
2023/04/09 07:47:47;;;;;;;15.00;6.28;;;;;;;7.71;77.21;100839.94;5024408;28;20128;-56
2023/04/09 07:50:14;;;;;;;23.70;7.80;;;;;;;7.84;77.51;100826.44;5016270;28;20049;-54
2023/04/09 07:52:41;;;;;;;22.50;7.75;;;;;;;8.05;75.72;100820.00;5021990;28;20084;-53
2023/04/09 07:55:08;;;;;;;21.63;5.97;;;;;;;8.15;75.87;100827.91;5027945;28;20099;-56
2023/04/09 07:57:35;;;;;;;20.80;7.90;;;;;;;8.23;75.53;100834.09;5022195;28;20080;-51
2023/04/09 08:00:03;;;;;;;22.13;8.52;;;;;;;8.31;74.90;100836.84;5020172;28;20046;-50
2023/04/09 08:02:29;;;;;;;20.52;7.82;;;;;;;8.37;74.88;100836.94;5024319;28;20798;-52
2023/04/09 08:04:56;;;;;;;25.27;7.93;;;;;;;8.28;74.04;100821.28;5016210;28;20060;-50
2023/04/09 08:07:23;;;;;;;21.23;7.15;;;;;;;8.42;74.57;100829.28;5015973;28;20076;-52
2023/04/09 08:09:50;;;;;;;23.17;8.48;;;;;;;9.05;74.28;100826.09;5021440;28;20045;-53
2023/04/09 08:12:17;;;;;;;24.08;7.68;;;;;;;9.79;73.51;100820.28;5022917;28;20084;-55
2023/04/09 08:14:43;;;;;;;21.67;8.40;;;;;;;10.51;71.37;100816.78;5015201;28;20174;-54
2023/04/09 08:17:10;;;;;;;15.30;5.88;;;;;;;11.10;69.86;100812.09;5019091;28;20065;-52
2023/04/09 08:19:36;;;;;;;23.35;8.90;;;;;;;11.36;68.52;100808.84;5027592;28;20501;-52
2023/04/09 08:22:06;;;;;;;;;;;;;;;11.53;67.57;100814.13;5016355;28;20041;-52
2023/04/09 08:24:34;;;;;;;24.38;8.95;;;;;;;11.90;66.04;100803.06;5016787;28;19987;-57
2023/04/09 08:27:00;;;;;;;23.98;10.63;;;;;;;12.36;65.85;100816.19;5024618;28;20629;-52
2023/04/09 08:29:28;;;;;;;23.77;8.35;;;;;;;12.53;64.67;100811.88;5016608;28;20050;-53
2023/04/09 08:31:55;;;;;;;22.27;8.38;;;;;;;12.65;63.92;100817.97;5024601;28;20073;-54
2023/04/09 08:34:21;;;;;;;21.77;7.55;;;;;;;12.77;63.37;100823.16;5013567;28;20080;-52
2023/04/09 08:36:48;;;;;;;21.60;8.30;;;;;;;12.80;63.91;100809.34;5018700;28;20042;-51
2023/04/09 08:39:18;;;;;;;24.80;9.60;;;;;;;12.99;63.46;100804.97;5019637;28;20057;-56
2023/04/09 08:41:47;;;;;;;20.30;7.80;;;;;;;13.29;63.10;100818.81;5013907;28;20061;-54
2023/04/09 08:44:14;;;;;;;20.58;9.65;;;;;;;13.39;62.97;100822.28;5018200;28;20652;-54
2023/04/09 08:46:40;;;;;;;23.70;9.77;;;;;;;13.29;61.22;100824.03;5021669;28;20076;-55
2023/04/09 08:49:09;;;;;;;21.20;8.82;;;;;;;13.26;61.67;100828.34;5014203;28;20105;-57
2023/04/09 08:51:35;;;;;;;19.88;8.27;;;;;;;13.16;61.20;100819.69;5026636;28;20144;-57
2023/04/09 08:54:02;;;;;;;25.42;11.63;;;;;;;13.10;62.21;100818.84;5023543;28;20448;-50
2023/04/09 08:56:30;;;;;;;22.55;7.80;;;;;;;12.82;61.75;100831.84;5023481;28;20060;-55
2023/04/09 08:58:57;;;;;;;22.30;8.77;;;;;;;12.66;62.36;100827.50;5020583;28;20517;-57
2023/04/09 09:01:27;;;;;;;23.13;8.88;;;;;;;12.49;63.16;100830.94;5020203;28;20049;-53
2023/04/09 09:06:39;;;;;;;20.58;10.48;;;;;;;12.60;63.75;100824.03;5103793;27;20395;-56
2023/04/09 09:09:09;;;;;;;24.67;11.30;;;;;;;12.51;62.87;100818.81;5064721;28;20045;-56
2023/04/09 09:11:38;;;;;;;24.55;10.00;;;;;;;12.52;63.27;100820.56;5064456;28;20095;-53
2023/04/09 09:14:06;;;;;;;27.75;10.65;;;;;;;12.56;63.49;100822.28;5062537;28;20083;-54
2023/04/09 09:16:35;;;;;;;20.02;9.75;;;;;;;12.45;63.56;100824.00;5077725;28;20048;-53
2023/04/09 09:19:02;;;;;;;22.33;9.27;;;;;;;12.59;64.14;100811.03;5072599;28;20814;-53
2023/04/09 09:21:29;;;;;;;20.00;9.40;;;;;;;12.61;63.92;100814.50;5063830;28;20048;-52
2023/04/09 09:23:56;;;;;;;22.52;10.00;;;;;;;12.64;63.76;100818.84;5061711;28;20052;-55
2023/04/09 09:26:25;;;;;;;13.18;6.63;;;;;;;12.84;63.50;100817.09;5061524;28;20040;-51
2023/04/09 09:28:52;;;;;;;19.52;7.90;;;;;;;12.75;63.80;100816.25;5046897;28;20629;-53
2023/04/09 09:31:20;;;;;;;18.85;8.32;;;;;;;12.59;64.11;100806.72;5059913;28;20041;-55
2023/04/09 09:33:49;;;;;;;23.63;10.98;;;;;;;12.71;62.33;100810.19;5063450;28;20049;-52
2023/04/09 09:36:30;;;;;;;25.35;11.45;;;;;;;12.64;62.54;100804.13;5061207;28;20098;-51
2023/04/09 09:39:01;;;;;;;26.35;9.93;;;;;;;12.76;63.27;100794.59;5060445;28;20507;-56
2023/04/09 09:41:27;;;;;;;21.25;9.98;;;;;;;12.91;63.08;100796.31;5062420;28;20064;-53
2023/04/09 09:43:54;;;;;;;21.13;9.35;;;;;;;13.13;63.31;100802.34;5060874;28;20194;-55
2023/04/09 09:46:21;;;;;;;22.92;10.63;;;;;;;13.05;61.94;100799.78;5061381;28;20053;-56
2023/04/09 09:48:48;;;;;;;22.38;9.73;;;;;;;12.94;62.39;100796.31;5059876;28;20049;-49
2023/04/09 09:51:16;;;;;;;27.52;11.57;;;;;;;12.89;61.31;100795.44;5062914;28;20078;-47
2023/04/09 09:53:44;;;;;;;23.63;9.73;;;;;;;12.85;62.41;100798.06;5063378;28;20504;-53
2023/04/09 09:56:15;;;;;;;17.58;8.20;;;;;;;12.75;62.10;100795.44;5062675;28;20049;-54
2023/04/09 10:01:25;;;;;;;21.27;8.73;;;;;;;12.64;62.54;100782.44;5072579;27;20401;-52
2023/04/09 10:03:52;;;;;;;20.73;8.25;;;;;;;12.70;61.42;100782.47;5051250;28;20114;-54
2023/04/09 10:06:20;;;;;;;21.50;8.73;;;;;;;12.73;62.22;100772.03;5062955;28;20044;-51
2023/04/09 10:08:48;;;;;;;23.38;8.05;;;;;;;12.74;62.98;100760.81;5058501;28;20087;-53
2023/04/09 10:11:16;;;;;;;16.40;6.03;;;;;;;12.77;64.04;100768.56;5060089;28;20132;-55
2023/04/09 10:13:49;;;;;;;17.95;8.32;;;;;;;12.97;62.63;100754.72;5056839;28;20486;-53
2023/04/09 10:16:17;;;;;;;20.73;7.93;;;;;;;13.23;62.56;100754.66;5060761;28;20052;-51
2023/04/09 10:18:44;;;;;;;20.10;7.95;;;;;;;13.08;60.58;100752.09;5059864;28;20057;-53
2023/04/09 10:21:24;;;;;;;15.52;7.03;;;;;;;13.33;62.05;100747.69;5057150;28;20155;-53
2023/04/09 10:23:51;;;;;;;26.92;9.98;;;;;;;13.57;61.93;100745.91;5052662;28;20049;-57
2023/04/09 10:26:18;;;;;;;21.05;9.32;;;;;;;13.79;61.26;100745.84;5057169;28;20111;-53
2023/04/09 10:28:45;;;;;;;22.40;7.85;;;;;;;13.69;60.64;100745.00;5059763;28;20040;-54
2023/04/09 10:31:12;;;;;;;21.02;7.53;;;;;;;13.88;61.56;100745.78;5063407;28;20064;-53
2023/04/09 10:33:42;;;;;;;19.90;7.55;;;;;;;13.95;60.79;100745.75;5062359;28;20567;-52
2023/04/09 10:36:11;;;;;;;20.33;8.40;;;;;;;14.02;60.51;100739.63;5059053;28;20566;-52
2023/04/09 10:38:40;;;;;;;21.98;8.27;;;;;;;14.05;60.46;100736.97;5059149;28;20049;-53
2023/04/09 10:41:14;;;;;;;15.65;6.55;;;;;;;14.10;60.63;100737.84;5054177;28;20110;-55
2023/04/09 10:43:42;;;;;;;18.92;8.70;;;;;;;14.05;60.37;100726.56;5058966;28;20643;-56
2023/04/09 10:46:29;;;;;;;17.75;7.88;;;;;;;14.00;59.14;100728.34;5045097;28;20120;-54
2023/04/09 10:51:52;;;;;;;13.40;5.47;;;;;;;14.06;60.57;100719.63;5032623;28;20407;-54
2023/04/09 10:54:42;;;;;;;16.95;7.13;;;;;;;14.17;61.00;100719.56;5014924;28;20046;-53
2023/04/09 10:57:19;;;;;;;21.77;9.20;;;;;;;14.30;61.17;100710.78;5014801;28;20050;-53
2023/04/09 10:59:49;;;;;;;20.42;8.68;;;;;;;14.52;59.12;100702.78;5015464;28;20046;-53
2023/04/09 11:07:34;;;;;;;12.85;5.97;;;;;;;14.81;58.31;100688.66;5073545;27;20899;-55
2023/04/09 11:10:00;;;;;;;15.82;6.30;;;;;;;15.01;59.73;100679.75;5064159;28;20068;-52
2023/04/09 11:12:27;;;;;;;17.38;7.30;;;;;;;15.09;58.40;100675.31;5110899;28;20508;-50
2023/04/09 11:14:53;;;;;;;20.08;7.97;;;;;;;15.01;57.83;100672.78;5079924;28;20121;-54
2023/04/09 11:17:20;;;;;;;16.92;7.28;;;;;;;15.00;57.79;100667.59;5076350;28;20504;-51
2023/04/09 11:19:47;;;;;;;11.85;4.72;;;;;;;15.15;58.19;100658.72;5075982;28;20059;-54
2023/04/09 11:22:15;;;;;;;17.08;7.53;;;;;;;15.19;57.16;100654.34;5070730;28;20072;-49
2023/04/09 11:24:43;;;;;;;14.98;6.75;;;;;;;14.97;57.35;100649.38;5073766;28;20076;-53
2023/04/09 11:27:09;;;;;;;12.75;5.00;;;;;;;14.95;56.92;100651.09;5074377;28;20515;-53
2023/04/09 11:29:36;;;;;;;14.60;6.15;;;;;;;15.00;56.79;100644.13;5063823;28;20574;-49
2023/04/09 11:32:04;;;;;;;12.85;6.05;;;;;;;15.06;56.84;100637.97;5069793;28;20044;-53
2023/04/09 11:34:31;;;;;;;17.52;7.20;;;;;;;15.11;57.33;100636.16;5070186;28;20071;-52
2023/04/09 11:36:58;;;;;;;14.77;6.55;;;;;;;15.12;58.21;100630.91;5071452;28;20048;-52
2023/04/09 11:39:25;;;;;;;12.35;6.60;;;;;;;15.11;57.77;100629.19;5065179;28;20091;-53
2023/04/09 11:41:52;;;;;;;13.15;6.28;;;;;;;15.18;57.13;100626.50;5081729;28;20087;-52
2023/04/09 11:44:20;;;;;;;11.32;5.80;;;;;;;15.35;57.22;100619.31;5076841;28;20068;-53
2023/04/09 11:46:47;;;;;;;13.40;5.13;;;;;;;15.41;55.45;100614.00;5095554;28;20075;-53
2023/04/09 11:49:15;;;;;;;11.98;5.40;;;;;;;15.33;55.86;100618.47;5066045;28;20045;-53